sensor_id;sensor_type;location;lat;lon;timestamp;P1;durP1;ratioP1;P2;durP2;ratioP2
2259;SDS011;333;48.800;9.530;2022-12-07T00:01:35;21.63;;;16.87;;
2259;SDS011;333;48.800;9.530;2022-12-07T00:04:03;12.53;;;9.37;;
2259;SDS011;333;48.800;9.530;2022-12-07T00:06:32;10.83;;;9.77;;
2259;SDS011;333;48.800;9.530;2022-12-07T00:09:00;10.80;;;9.53;;
2259;SDS011;333;48.800;9.530;2022-12-07T00:11:27;11.53;;;9.40;;
2259;SDS011;333;48.800;9.530;2022-12-07T00:13:55;14.03;;;12.53;;
2259;SDS011;333;48.800;9.530;2022-12-07T00:16:23;11.63;;;9.47;;
2259;SDS011;333;48.800;9.530;2022-12-07T00:18:51;10.73;;;9.63;;
2259;SDS011;333;48.800;9.530;2022-12-07T00:21:19;10.80;;;8.70;;
2259;SDS011;333;48.800;9.530;2022-12-07T00:23:49;13.00;;;9.60;;
2259;SDS011;333;48.800;9.530;2022-12-07T00:26:17;14.83;;;8.63;;
2259;SDS011;333;48.800;9.530;2022-12-07T00:28:45;16.07;;;10.40;;
2259;SDS011;333;48.800;9.530;2022-12-07T00:31:13;11.17;;;8.73;;
2259;SDS011;333;48.800;9.530;2022-12-07T00:33:41;19.07;;;11.07;;
2259;SDS011;333;48.800;9.530;2022-12-07T00:36:09;11.33;;;8.97;;
2259;SDS011;333;48.800;9.530;2022-12-07T00:38:37;12.70;;;10.27;;
2259;SDS011;333;48.800;9.530;2022-12-07T00:41:07;11.17;;;9.97;;
2259;SDS011;333;48.800;9.530;2022-12-07T00:43:34;11.53;;;9.93;;
2259;SDS011;333;48.800;9.530;2022-12-07T00:46:02;12.27;;;9.27;;
2259;SDS011;333;48.800;9.530;2022-12-07T00:48:29;12.77;;;9.47;;
2259;SDS011;333;48.800;9.530;2022-12-07T00:50:56;11.73;;;10.43;;
2259;SDS011;333;48.800;9.530;2022-12-07T00:53:24;10.60;;;9.13;;
2259;SDS011;333;48.800;9.530;2022-12-07T00:55:51;11.37;;;8.80;;
2259;SDS011;333;48.800;9.530;2022-12-07T00:58:20;10.90;;;9.67;;
2259;SDS011;333;48.800;9.530;2022-12-07T01:00:47;11.20;;;9.50;;
2259;SDS011;333;48.800;9.530;2022-12-07T01:03:15;10.53;;;9.43;;
2259;SDS011;333;48.800;9.530;2022-12-07T01:05:48;12.57;;;9.80;;
2259;SDS011;333;48.800;9.530;2022-12-07T01:08:16;12.30;;;10.43;;
2259;SDS011;333;48.800;9.530;2022-12-07T01:10:43;15.10;;;9.47;;
2259;SDS011;333;48.800;9.530;2022-12-07T01:13:11;11.03;;;9.20;;
2259;SDS011;333;48.800;9.530;2022-12-07T01:15:40;13.10;;;10.27;;
2259;SDS011;333;48.800;9.530;2022-12-07T01:18:08;10.17;;;8.80;;
2259;SDS011;333;48.800;9.530;2022-12-07T01:20:35;10.93;;;9.10;;
2259;SDS011;333;48.800;9.530;2022-12-07T01:23:02;10.37;;;9.30;;
2259;SDS011;333;48.800;9.530;2022-12-07T01:25:30;8.83;;;8.03;;
2259;SDS011;333;48.800;9.530;2022-12-07T01:27:57;16.30;;;8.97;;
2259;SDS011;333;48.800;9.530;2022-12-07T01:30:24;11.70;;;9.67;;
2259;SDS011;333;48.800;9.530;2022-12-07T01:32:53;11.60;;;9.77;;
2259;SDS011;333;48.800;9.530;2022-12-07T01:41:29;15.13;;;9.70;;
2259;SDS011;333;48.800;9.530;2022-12-07T01:44:07;12.60;;;9.90;;
2259;SDS011;333;48.800;9.530;2022-12-07T01:46:35;12.13;;;10.27;;
2259;SDS011;333;48.800;9.530;2022-12-07T01:49:04;9.97;;;8.83;;
2259;SDS011;333;48.800;9.530;2022-12-07T01:51:33;14.77;;;10.17;;
2259;SDS011;333;48.800;9.530;2022-12-07T01:54:00;11.40;;;9.87;;
2259;SDS011;333;48.800;9.530;2022-12-07T01:56:28;15.23;;;11.23;;
2259;SDS011;333;48.800;9.530;2022-12-07T01:58:56;12.20;;;8.70;;
2259;SDS011;333;48.800;9.530;2022-12-07T02:01:24;12.07;;;10.33;;
2259;SDS011;333;48.800;9.530;2022-12-07T02:03:51;19.67;;;10.77;;
2259;SDS011;333;48.800;9.530;2022-12-07T02:06:20;12.03;;;9.43;;
2259;SDS011;333;48.800;9.530;2022-12-07T02:08:49;14.17;;;10.17;;
2259;SDS011;333;48.800;9.530;2022-12-07T02:11:16;11.30;;;9.27;;
2259;SDS011;333;48.800;9.530;2022-12-07T02:13:44;12.73;;;10.10;;
2259;SDS011;333;48.800;9.530;2022-12-07T02:16:16;11.40;;;8.10;;
2259;SDS011;333;48.800;9.530;2022-12-07T02:18:49;11.80;;;10.10;;
2259;SDS011;333;48.800;9.530;2022-12-07T02:21:23;12.40;;;9.43;;
2259;SDS011;333;48.800;9.530;2022-12-07T02:23:59;13.50;;;9.50;;
2259;SDS011;333;48.800;9.530;2022-12-07T02:29:19;14.17;;;9.77;;
2259;SDS011;333;48.800;9.530;2022-12-07T02:31:51;15.23;;;9.80;;
2259;SDS011;333;48.800;9.530;2022-12-07T02:34:22;13.83;;;10.03;;
2259;SDS011;333;48.800;9.530;2022-12-07T02:36:52;14.27;;;10.87;;
2259;SDS011;333;48.800;9.530;2022-12-07T02:39:23;10.67;;;9.40;;
2259;SDS011;333;48.800;9.530;2022-12-07T02:41:52;12.60;;;8.77;;
2259;SDS011;333;48.800;9.530;2022-12-07T02:44:24;11.90;;;9.40;;
2259;SDS011;333;48.800;9.530;2022-12-07T02:46:53;12.63;;;10.20;;
2259;SDS011;333;48.800;9.530;2022-12-07T02:49:21;11.10;;;9.43;;
2259;SDS011;333;48.800;9.530;2022-12-07T02:51:49;11.70;;;10.37;;
2259;SDS011;333;48.800;9.530;2022-12-07T02:54:18;12.50;;;9.57;;
2259;SDS011;333;48.800;9.530;2022-12-07T02:56:46;12.80;;;9.00;;
2259;SDS011;333;48.800;9.530;2022-12-07T02:59:17;11.00;;;8.70;;
2259;SDS011;333;48.800;9.530;2022-12-07T03:01:54;11.87;;;10.43;;
2259;SDS011;333;48.800;9.530;2022-12-07T03:04:27;11.37;;;10.07;;
2259;SDS011;333;48.800;9.530;2022-12-07T03:06:56;12.07;;;9.60;;
2259;SDS011;333;48.800;9.530;2022-12-07T03:09:25;12.23;;;9.67;;
2259;SDS011;333;48.800;9.530;2022-12-07T03:11:55;12.30;;;10.83;;
2259;SDS011;333;48.800;9.530;2022-12-07T03:14:28;11.87;;;9.60;;
2259;SDS011;333;48.800;9.530;2022-12-07T03:17:00;11.30;;;9.33;;
2259;SDS011;333;48.800;9.530;2022-12-07T03:19:29;11.73;;;9.50;;
2259;SDS011;333;48.800;9.530;2022-12-07T03:21:59;12.13;;;9.20;;
2259;SDS011;333;48.800;9.530;2022-12-07T03:24:30;11.23;;;8.47;;
2259;SDS011;333;48.800;9.530;2022-12-07T03:26:59;13.90;;;9.67;;
2259;SDS011;333;48.800;9.530;2022-12-07T03:29:30;13.43;;;10.30;;
2259;SDS011;333;48.800;9.530;2022-12-07T03:32:01;11.83;;;9.30;;
2259;SDS011;333;48.800;9.530;2022-12-07T03:34:31;13.70;;;10.00;;
2259;SDS011;333;48.800;9.530;2022-12-07T03:37:00;10.93;;;9.60;;
2259;SDS011;333;48.800;9.530;2022-12-07T03:39:29;9.83;;;8.67;;
2259;SDS011;333;48.800;9.530;2022-12-07T03:42:00;10.83;;;9.33;;
2259;SDS011;333;48.800;9.530;2022-12-07T03:44:29;12.97;;;9.83;;
2259;SDS011;333;48.800;9.530;2022-12-07T03:46:58;11.07;;;9.57;;
2259;SDS011;333;48.800;9.530;2022-12-07T03:49:30;13.20;;;9.73;;
2259;SDS011;333;48.800;9.530;2022-12-07T03:52:00;11.87;;;9.23;;
2259;SDS011;333;48.800;9.530;2022-12-07T03:54:30;11.93;;;9.40;;
2259;SDS011;333;48.800;9.530;2022-12-07T03:56:59;11.60;;;9.07;;
2259;SDS011;333;48.800;9.530;2022-12-07T03:59:28;15.10;;;11.23;;
2259;SDS011;333;48.800;9.530;2022-12-07T04:01:57;12.50;;;10.10;;
2259;SDS011;333;48.800;9.530;2022-12-07T04:04:26;10.93;;;9.03;;
2259;SDS011;333;48.800;9.530;2022-12-07T04:06:54;15.50;;;11.77;;
2259;SDS011;333;48.800;9.530;2022-12-07T04:09:21;12.70;;;9.10;;
2259;SDS011;333;48.800;9.530;2022-12-07T04:11:49;13.23;;;10.00;;
2259;SDS011;333;48.800;9.530;2022-12-07T04:14:16;12.97;;;9.13;;
2259;SDS011;333;48.800;9.530;2022-12-07T04:16:46;15.00;;;10.40;;
2259;SDS011;333;48.800;9.530;2022-12-07T04:19:14;14.33;;;10.47;;
2259;SDS011;333;48.800;9.530;2022-12-07T04:21:41;10.83;;;9.40;;
2259;SDS011;333;48.800;9.530;2022-12-07T04:24:11;15.30;;;10.23;;
2259;SDS011;333;48.800;9.530;2022-12-07T04:26:38;15.00;;;10.47;;
2259;SDS011;333;48.800;9.530;2022-12-07T04:29:06;14.37;;;9.87;;
2259;SDS011;333;48.800;9.530;2022-12-07T04:31:33;11.77;;;9.60;;
2259;SDS011;333;48.800;9.530;2022-12-07T04:34:00;14.27;;;10.00;;
2259;SDS011;333;48.800;9.530;2022-12-07T04:36:28;13.47;;;9.70;;
2259;SDS011;333;48.800;9.530;2022-12-07T04:38:55;25.63;;;19.70;;
2259;SDS011;333;48.800;9.530;2022-12-07T04:41:24;22.23;;;16.40;;
2259;SDS011;333;48.800;9.530;2022-12-07T04:43:53;13.57;;;10.90;;
2259;SDS011;333;48.800;9.530;2022-12-07T04:46:22;14.87;;;10.50;;
2259;SDS011;333;48.800;9.530;2022-12-07T04:48:49;12.30;;;9.63;;
2259;SDS011;333;48.800;9.530;2022-12-07T04:51:18;12.30;;;8.93;;
2259;SDS011;333;48.800;9.530;2022-12-07T04:53:46;13.70;;;11.30;;
2259;SDS011;333;48.800;9.530;2022-12-07T04:56:13;11.83;;;9.40;;
2259;SDS011;333;48.800;9.530;2022-12-07T04:58:42;12.40;;;8.97;;
2259;SDS011;333;48.800;9.530;2022-12-07T05:01:10;13.27;;;9.87;;
2259;SDS011;333;48.800;9.530;2022-12-07T05:03:37;18.10;;;11.33;;
2259;SDS011;333;48.800;9.530;2022-12-07T05:06:05;17.00;;;11.30;;
2259;SDS011;333;48.800;9.530;2022-12-07T05:08:33;13.43;;;9.60;;
2259;SDS011;333;48.800;9.530;2022-12-07T05:11:00;14.90;;;9.63;;
2259;SDS011;333;48.800;9.530;2022-12-07T05:13:28;15.03;;;9.60;;
2259;SDS011;333;48.800;9.530;2022-12-07T05:15:57;13.97;;;9.93;;
2259;SDS011;333;48.800;9.530;2022-12-07T05:18:24;14.30;;;10.00;;
2259;SDS011;333;48.800;9.530;2022-12-07T05:20:51;14.33;;;9.73;;
2259;SDS011;333;48.800;9.530;2022-12-07T05:23:19;13.40;;;9.97;;
2259;SDS011;333;48.800;9.530;2022-12-07T05:25:46;14.37;;;10.47;;
2259;SDS011;333;48.800;9.530;2022-12-07T05:28:13;14.27;;;10.37;;
2259;SDS011;333;48.800;9.530;2022-12-07T05:30:41;14.83;;;10.63;;
2259;SDS011;333;48.800;9.530;2022-12-07T05:33:09;14.87;;;11.67;;
2259;SDS011;333;48.800;9.530;2022-12-07T05:35:37;12.50;;;9.87;;
2259;SDS011;333;48.800;9.530;2022-12-07T05:38:04;13.20;;;9.50;;
2259;SDS011;333;48.800;9.530;2022-12-07T05:40:31;15.37;;;10.43;;
2259;SDS011;333;48.800;9.530;2022-12-07T05:42:58;17.00;;;12.43;;
2259;SDS011;333;48.800;9.530;2022-12-07T05:45:26;14.20;;;10.43;;
2259;SDS011;333;48.800;9.530;2022-12-07T05:47:53;14.40;;;11.37;;
2259;SDS011;333;48.800;9.530;2022-12-07T05:50:22;18.90;;;11.30;;
2259;SDS011;333;48.800;9.530;2022-12-07T05:52:49;19.67;;;10.17;;
2259;SDS011;333;48.800;9.530;2022-12-07T05:55:16;17.73;;;11.00;;
2259;SDS011;333;48.800;9.530;2022-12-07T05:57:43;14.20;;;10.40;;
2259;SDS011;333;48.800;9.530;2022-12-07T06:00:31;14.37;;;10.50;;
2259;SDS011;333;48.800;9.530;2022-12-07T06:02:57;17.20;;;10.50;;
2259;SDS011;333;48.800;9.530;2022-12-07T06:05:25;14.57;;;10.47;;
2259;SDS011;333;48.800;9.530;2022-12-07T06:07:53;16.53;;;10.60;;
2259;SDS011;333;48.800;9.530;2022-12-07T06:10:20;15.93;;;10.67;;
2259;SDS011;333;48.800;9.530;2022-12-07T06:12:47;16.23;;;12.57;;
2259;SDS011;333;48.800;9.530;2022-12-07T06:15:14;14.10;;;11.33;;
2259;SDS011;333;48.800;9.530;2022-12-07T06:17:41;15.70;;;11.20;;
2259;SDS011;333;48.800;9.530;2022-12-07T06:20:08;14.10;;;11.07;;
2259;SDS011;333;48.800;9.530;2022-12-07T06:22:37;14.30;;;11.70;;
2259;SDS011;333;48.800;9.530;2022-12-07T06:25:04;24.80;;;15.57;;
2259;SDS011;333;48.800;9.530;2022-12-07T06:27:32;23.07;;;15.10;;
2259;SDS011;333;48.800;9.530;2022-12-07T06:30:00;21.67;;;14.77;;
2259;SDS011;333;48.800;9.530;2022-12-07T06:32:31;17.37;;;12.60;;
2259;SDS011;333;48.800;9.530;2022-12-07T06:34:59;19.83;;;14.30;;
2259;SDS011;333;48.800;9.530;2022-12-07T06:37:26;17.83;;;11.80;;
2259;SDS011;333;48.800;9.530;2022-12-07T06:39:55;16.83;;;13.57;;
2259;SDS011;333;48.800;9.530;2022-12-07T06:42:22;12.67;;;10.97;;
2259;SDS011;333;48.800;9.530;2022-12-07T06:44:49;15.17;;;10.57;;
2259;SDS011;333;48.800;9.530;2022-12-07T06:47:16;16.47;;;11.90;;
2259;SDS011;333;48.800;9.530;2022-12-07T06:49:44;17.10;;;11.90;;
2259;SDS011;333;48.800;9.530;2022-12-07T06:52:11;16.03;;;12.37;;
2259;SDS011;333;48.800;9.530;2022-12-07T06:54:38;18.67;;;14.00;;
2259;SDS011;333;48.800;9.530;2022-12-07T06:57:07;18.67;;;13.20;;
2259;SDS011;333;48.800;9.530;2022-12-07T06:59:34;22.57;;;12.83;;
2259;SDS011;333;48.800;9.530;2022-12-07T07:02:01;18.13;;;11.97;;
2259;SDS011;333;48.800;9.530;2022-12-07T07:04:29;18.00;;;13.60;;
2259;SDS011;333;48.800;9.530;2022-12-07T07:06:56;18.53;;;11.73;;
2259;SDS011;333;48.800;9.530;2022-12-07T07:09:23;13.20;;;10.77;;
2259;SDS011;333;48.800;9.530;2022-12-07T07:11:51;16.80;;;13.43;;
2259;SDS011;333;48.800;9.530;2022-12-07T07:14:19;17.80;;;12.37;;
2259;SDS011;333;48.800;9.530;2022-12-07T07:16:47;19.57;;;12.10;;
2259;SDS011;333;48.800;9.530;2022-12-07T07:19:14;16.63;;;12.30;;
2259;SDS011;333;48.800;9.530;2022-12-07T07:21:41;15.23;;;12.30;;
2259;SDS011;333;48.800;9.530;2022-12-07T07:24:08;17.27;;;12.50;;
2259;SDS011;333;48.800;9.530;2022-12-07T07:26:36;18.03;;;13.60;;
2259;SDS011;333;48.800;9.530;2022-12-07T07:29:03;18.30;;;13.07;;
2259;SDS011;333;48.800;9.530;2022-12-07T07:31:32;16.13;;;12.03;;
2259;SDS011;333;48.800;9.530;2022-12-07T07:34:00;15.10;;;12.60;;
2259;SDS011;333;48.800;9.530;2022-12-07T07:36:27;16.53;;;12.67;;
2259;SDS011;333;48.800;9.530;2022-12-07T07:38:54;21.17;;;14.00;;
2259;SDS011;333;48.800;9.530;2022-12-07T07:41:22;20.53;;;11.90;;
2259;SDS011;333;48.800;9.530;2022-12-07T07:43:49;16.43;;;12.10;;
2259;SDS011;333;48.800;9.530;2022-12-07T07:46:16;17.80;;;12.33;;
2259;SDS011;333;48.800;9.530;2022-12-07T07:48:45;15.47;;;11.20;;
2259;SDS011;333;48.800;9.530;2022-12-07T07:51:12;23.33;;;14.67;;
2259;SDS011;333;48.800;9.530;2022-12-07T07:53:40;17.30;;;12.67;;
2259;SDS011;333;48.800;9.530;2022-12-07T07:56:07;18.57;;;14.50;;
2259;SDS011;333;48.800;9.530;2022-12-07T07:58:34;15.50;;;11.70;;
2259;SDS011;333;48.800;9.530;2022-12-07T08:01:04;13.83;;;11.37;;
2259;SDS011;333;48.800;9.530;2022-12-07T08:03:31;16.70;;;11.20;;
2259;SDS011;333;48.800;9.530;2022-12-07T08:06:00;18.10;;;11.63;;
2259;SDS011;333;48.800;9.530;2022-12-07T08:08:28;14.17;;;11.83;;
2259;SDS011;333;48.800;9.530;2022-12-07T08:10:55;15.10;;;11.43;;
2259;SDS011;333;48.800;9.530;2022-12-07T08:13:25;18.70;;;11.80;;
2259;SDS011;333;48.800;9.530;2022-12-07T08:15:53;14.40;;;10.30;;
2259;SDS011;333;48.800;9.530;2022-12-07T08:18:20;12.27;;;10.23;;
2259;SDS011;333;48.800;9.530;2022-12-07T08:20:47;12.43;;;9.20;;
2259;SDS011;333;48.800;9.530;2022-12-07T08:23:16;12.77;;;9.93;;
2259;SDS011;333;48.800;9.530;2022-12-07T08:25:43;13.47;;;11.40;;
2259;SDS011;333;48.800;9.530;2022-12-07T08:28:10;15.47;;;10.70;;
2259;SDS011;333;48.800;9.530;2022-12-07T08:30:37;12.63;;;9.63;;
2259;SDS011;333;48.800;9.530;2022-12-07T08:33:04;10.87;;;9.47;;
2259;SDS011;333;48.800;9.530;2022-12-07T08:35:32;11.93;;;9.90;;
2259;SDS011;333;48.800;9.530;2022-12-07T08:37:59;12.73;;;10.00;;
2259;SDS011;333;48.800;9.530;2022-12-07T08:40:29;10.90;;;8.30;;
2259;SDS011;333;48.800;9.530;2022-12-07T08:42:56;11.93;;;8.50;;
2259;SDS011;333;48.800;9.530;2022-12-07T08:45:23;15.17;;;10.00;;
2259;SDS011;333;48.800;9.530;2022-12-07T08:47:52;13.43;;;9.10;;
2259;SDS011;333;48.800;9.530;2022-12-07T08:50:20;12.20;;;10.90;;
2259;SDS011;333;48.800;9.530;2022-12-07T08:52:49;11.83;;;9.40;;
2259;SDS011;333;48.800;9.530;2022-12-07T08:55:18;15.43;;;10.60;;
2259;SDS011;333;48.800;9.530;2022-12-07T08:57:47;13.17;;;10.87;;
2259;SDS011;333;48.800;9.530;2022-12-07T09:00:15;9.37;;;8.43;;
2259;SDS011;333;48.800;9.530;2022-12-07T09:02:43;11.33;;;7.03;;
2259;SDS011;333;48.800;9.530;2022-12-07T09:05:11;11.70;;;8.10;;
2259;SDS011;333;48.800;9.530;2022-12-07T09:07:39;10.13;;;8.10;;
2259;SDS011;333;48.800;9.530;2022-12-07T09:10:08;11.50;;;9.00;;
2259;SDS011;333;48.800;9.530;2022-12-07T09:12:35;11.00;;;8.70;;
2259;SDS011;333;48.800;9.530;2022-12-07T09:15:04;15.70;;;9.53;;
2259;SDS011;333;48.800;9.530;2022-12-07T09:17:32;9.30;;;7.43;;
2259;SDS011;333;48.800;9.530;2022-12-07T09:19:59;6.60;;;5.90;;
2259;SDS011;333;48.800;9.530;2022-12-07T09:22:28;9.37;;;6.03;;
2259;SDS011;333;48.800;9.530;2022-12-07T09:24:55;7.80;;;5.57;;
2259;SDS011;333;48.800;9.530;2022-12-07T09:27:22;6.27;;;5.67;;
2259;SDS011;333;48.800;9.530;2022-12-07T09:29:49;9.07;;;5.83;;
2259;SDS011;333;48.800;9.530;2022-12-07T09:32:18;6.83;;;5.93;;
2259;SDS011;333;48.800;9.530;2022-12-07T09:34:46;6.93;;;5.40;;
2259;SDS011;333;48.800;9.530;2022-12-07T09:37:13;6.73;;;5.20;;
2259;SDS011;333;48.800;9.530;2022-12-07T09:39:40;5.80;;;5.20;;
2259;SDS011;333;48.800;9.530;2022-12-07T09:42:08;6.90;;;6.20;;
2259;SDS011;333;48.800;9.530;2022-12-07T09:44:36;7.30;;;5.30;;
2259;SDS011;333;48.800;9.530;2022-12-07T09:47:03;6.67;;;6.00;;
2259;SDS011;333;48.800;9.530;2022-12-07T09:49:32;6.40;;;5.80;;
2259;SDS011;333;48.800;9.530;2022-12-07T09:52:00;7.83;;;6.77;;
2259;SDS011;333;48.800;9.530;2022-12-07T09:54:28;8.40;;;6.80;;
2259;SDS011;333;48.800;9.530;2022-12-07T09:56:56;6.87;;;6.23;;
2259;SDS011;333;48.800;9.530;2022-12-07T09:59:23;7.17;;;5.60;;
2259;SDS011;333;48.800;9.530;2022-12-07T10:01:50;8.60;;;6.73;;
2259;SDS011;333;48.800;9.530;2022-12-07T10:04:18;8.67;;;6.90;;
2259;SDS011;333;48.800;9.530;2022-12-07T10:06:47;6.20;;;5.10;;
2259;SDS011;333;48.800;9.530;2022-12-07T10:09:16;8.30;;;6.13;;
2259;SDS011;333;48.800;9.530;2022-12-07T10:12:00;6.67;;;5.77;;
2259;SDS011;333;48.800;9.530;2022-12-07T10:14:27;6.57;;;5.80;;
2259;SDS011;333;48.800;9.530;2022-12-07T10:16:55;7.60;;;5.93;;
2259;SDS011;333;48.800;9.530;2022-12-07T10:19:24;7.40;;;6.17;;
2259;SDS011;333;48.800;9.530;2022-12-07T10:22:09;6.97;;;6.20;;
2259;SDS011;333;48.800;9.530;2022-12-07T10:24:36;6.67;;;6.00;;
2259;SDS011;333;48.800;9.530;2022-12-07T10:27:04;7.37;;;4.33;;
2259;SDS011;333;48.800;9.530;2022-12-07T10:29:32;6.37;;;5.50;;
2259;SDS011;333;48.800;9.530;2022-12-07T10:32:00;7.23;;;5.53;;
2259;SDS011;333;48.800;9.530;2022-12-07T10:34:29;11.03;;;4.90;;
2259;SDS011;333;48.800;9.530;2022-12-07T10:37:13;6.90;;;5.47;;
2259;SDS011;333;48.800;9.530;2022-12-07T10:39:41;6.53;;;5.53;;
2259;SDS011;333;48.800;9.530;2022-12-07T10:42:15;7.27;;;5.63;;
2259;SDS011;333;48.800;9.530;2022-12-07T10:44:43;6.43;;;5.60;;
2259;SDS011;333;48.800;9.530;2022-12-07T10:47:14;6.30;;;5.70;;
2259;SDS011;333;48.800;9.530;2022-12-07T10:49:49;7.27;;;5.83;;
2259;SDS011;333;48.800;9.530;2022-12-07T10:52:25;7.10;;;5.33;;
2259;SDS011;333;48.800;9.530;2022-12-07T10:54:57;9.30;;;6.27;;
2259;SDS011;333;48.800;9.530;2022-12-07T10:57:32;5.90;;;5.10;;
2259;SDS011;333;48.800;9.530;2022-12-07T11:00:08;5.87;;;5.20;;
2259;SDS011;333;48.800;9.530;2022-12-07T11:02:50;7.17;;;5.27;;
2259;SDS011;333;48.800;9.530;2022-12-07T11:05:22;10.10;;;5.90;;
2259;SDS011;333;48.800;9.530;2022-12-07T11:07:54;5.73;;;5.13;;
2259;SDS011;333;48.800;9.530;2022-12-07T11:10:26;7.90;;;5.53;;
2259;SDS011;333;48.800;9.530;2022-12-07T11:13:02;6.50;;;5.77;;
2259;SDS011;333;48.800;9.530;2022-12-07T11:15:33;7.00;;;5.40;;
2259;SDS011;333;48.800;9.530;2022-12-07T11:18:03;5.53;;;5.00;;
2259;SDS011;333;48.800;9.530;2022-12-07T11:20:35;5.33;;;4.73;;
2259;SDS011;333;48.800;9.530;2022-12-07T11:23:09;8.83;;;5.80;;
2259;SDS011;333;48.800;9.530;2022-12-07T11:25:39;7.73;;;5.30;;
2259;SDS011;333;48.800;9.530;2022-12-07T11:28:15;5.40;;;4.90;;
2259;SDS011;333;48.800;9.530;2022-12-07T11:30:46;5.80;;;4.50;;
2259;SDS011;333;48.800;9.530;2022-12-07T11:33:18;5.83;;;4.80;;
2259;SDS011;333;48.800;9.530;2022-12-07T11:35:51;6.83;;;5.20;;
2259;SDS011;333;48.800;9.530;2022-12-07T11:38:22;6.77;;;4.57;;
2259;SDS011;333;48.800;9.530;2022-12-07T11:40:51;7.47;;;5.23;;
2259;SDS011;333;48.800;9.530;2022-12-07T11:43:21;8.93;;;5.83;;
2259;SDS011;333;48.800;9.530;2022-12-07T11:45:52;6.10;;;5.50;;
2259;SDS011;333;48.800;9.530;2022-12-07T11:48:22;7.30;;;6.53;;
2259;SDS011;333;48.800;9.530;2022-12-07T11:50:53;5.73;;;5.17;;
2259;SDS011;333;48.800;9.530;2022-12-07T11:53:24;7.13;;;5.70;;
2259;SDS011;333;48.800;9.530;2022-12-07T11:55:56;7.27;;;4.80;;
2259;SDS011;333;48.800;9.530;2022-12-07T11:58:35;8.53;;;5.73;;
2259;SDS011;333;48.800;9.530;2022-12-07T12:01:11;5.90;;;4.60;;
2259;SDS011;333;48.800;9.530;2022-12-07T12:03:41;6.73;;;5.43;;
2259;SDS011;333;48.800;9.530;2022-12-07T12:06:10;7.30;;;5.30;;
2259;SDS011;333;48.800;9.530;2022-12-07T12:08:39;6.20;;;4.83;;
2259;SDS011;333;48.800;9.530;2022-12-07T12:11:13;8.07;;;5.53;;
2259;SDS011;333;48.800;9.530;2022-12-07T12:13:53;6.33;;;5.40;;
2259;SDS011;333;48.800;9.530;2022-12-07T12:19:11;10.53;;;7.20;;
2259;SDS011;333;48.800;9.530;2022-12-07T12:21:43;8.00;;;5.07;;
2259;SDS011;333;48.800;9.530;2022-12-07T12:24:14;5.97;;;4.73;;
2259;SDS011;333;48.800;9.530;2022-12-07T12:26:48;5.53;;;4.70;;
2259;SDS011;333;48.800;9.530;2022-12-07T12:29:19;5.13;;;4.10;;
2259;SDS011;333;48.800;9.530;2022-12-07T12:31:48;7.73;;;4.70;;
2259;SDS011;333;48.800;9.530;2022-12-07T12:34:33;5.77;;;4.50;;
2259;SDS011;333;48.800;9.530;2022-12-07T12:37:00;5.80;;;4.33;;
2259;SDS011;333;48.800;9.530;2022-12-07T12:39:29;4.60;;;4.20;;
2259;SDS011;333;48.800;9.530;2022-12-07T12:41:57;4.77;;;4.20;;
2259;SDS011;333;48.800;9.530;2022-12-07T12:50:19;5.30;;;4.57;;
2259;SDS011;333;48.800;9.530;2022-12-07T12:58:38;6.17;;;5.10;;
2259;SDS011;333;48.800;9.530;2022-12-07T13:03:52;6.63;;;5.70;;
2259;SDS011;333;48.800;9.530;2022-12-07T13:06:20;7.60;;;6.10;;
2259;SDS011;333;48.800;9.530;2022-12-07T13:09:00;8.63;;;6.43;;
2259;SDS011;333;48.800;9.530;2022-12-07T13:11:28;7.43;;;6.40;;
2259;SDS011;333;48.800;9.530;2022-12-07T13:16:40;7.80;;;6.90;;
2259;SDS011;333;48.800;9.530;2022-12-07T13:21:56;10.60;;;7.97;;
2259;SDS011;333;48.800;9.530;2022-12-07T13:24:24;16.47;;;13.20;;
2259;SDS011;333;48.800;9.530;2022-12-07T13:26:51;8.80;;;6.40;;
2259;SDS011;333;48.800;9.530;2022-12-07T13:29:22;10.90;;;8.03;;
2259;SDS011;333;48.800;9.530;2022-12-07T13:31:52;9.70;;;8.40;;
2259;SDS011;333;48.800;9.530;2022-12-07T13:34:30;11.00;;;8.57;;
2259;SDS011;333;48.800;9.530;2022-12-07T13:36:58;10.80;;;7.80;;
2259;SDS011;333;48.800;9.530;2022-12-07T13:39:27;11.90;;;8.83;;
2259;SDS011;333;48.800;9.530;2022-12-07T13:41:55;18.23;;;7.50;;
2259;SDS011;333;48.800;9.530;2022-12-07T13:44:22;10.00;;;7.73;;
2259;SDS011;333;48.800;9.530;2022-12-07T13:46:54;9.60;;;7.03;;
2259;SDS011;333;48.800;9.530;2022-12-07T13:49:24;7.97;;;6.73;;
2259;SDS011;333;48.800;9.530;2022-12-07T13:51:51;13.27;;;8.90;;
2259;SDS011;333;48.800;9.530;2022-12-07T13:54:19;14.23;;;10.97;;
2259;SDS011;333;48.800;9.530;2022-12-07T13:56:47;10.40;;;8.50;;
2259;SDS011;333;48.800;9.530;2022-12-07T13:59:17;9.30;;;8.10;;
2259;SDS011;333;48.800;9.530;2022-12-07T14:01:45;15.23;;;12.03;;
2259;SDS011;333;48.800;9.530;2022-12-07T14:04:18;11.03;;;7.83;;
2259;SDS011;333;48.800;9.530;2022-12-07T14:06:48;13.77;;;12.40;;
2259;SDS011;333;48.800;9.530;2022-12-07T14:09:17;18.07;;;12.40;;
2259;SDS011;333;48.800;9.530;2022-12-07T14:11:45;7.57;;;6.87;;
2259;SDS011;333;48.800;9.530;2022-12-07T14:14:13;10.07;;;9.07;;
2259;SDS011;333;48.800;9.530;2022-12-07T14:16:42;9.40;;;8.47;;
2259;SDS011;333;48.800;9.530;2022-12-07T14:22:06;13.93;;;7.97;;
2259;SDS011;333;48.800;9.530;2022-12-07T14:24:40;9.53;;;7.77;;
2259;SDS011;333;48.800;9.530;2022-12-07T14:27:15;8.63;;;7.43;;
2259;SDS011;333;48.800;9.530;2022-12-07T14:29:43;11.50;;;7.87;;
2259;SDS011;333;48.800;9.530;2022-12-07T14:32:16;10.63;;;7.37;;
2259;SDS011;333;48.800;9.530;2022-12-07T14:34:52;8.60;;;7.40;;
2259;SDS011;333;48.800;9.530;2022-12-07T14:37:21;10.97;;;8.97;;
2259;SDS011;333;48.800;9.530;2022-12-07T14:39:48;10.27;;;7.40;;
2259;SDS011;333;48.800;9.530;2022-12-07T14:42:15;10.60;;;8.00;;
2259;SDS011;333;48.800;9.530;2022-12-07T14:44:43;9.27;;;7.40;;
2259;SDS011;333;48.800;9.530;2022-12-07T14:47:10;9.07;;;7.20;;
2259;SDS011;333;48.800;9.530;2022-12-07T14:49:38;8.50;;;7.20;;
2259;SDS011;333;48.800;9.530;2022-12-07T14:52:05;10.27;;;7.37;;
2259;SDS011;333;48.800;9.530;2022-12-07T14:54:34;10.07;;;7.47;;
2259;SDS011;333;48.800;9.530;2022-12-07T14:57:02;13.37;;;8.00;;
2259;SDS011;333;48.800;9.530;2022-12-07T14:59:30;10.70;;;8.80;;
2259;SDS011;333;48.800;9.530;2022-12-07T15:01:57;11.03;;;9.30;;
2259;SDS011;333;48.800;9.530;2022-12-07T15:04:24;10.73;;;8.10;;
2259;SDS011;333;48.800;9.530;2022-12-07T15:06:55;8.57;;;7.67;;
2259;SDS011;333;48.800;9.530;2022-12-07T15:09:22;11.30;;;8.57;;
2259;SDS011;333;48.800;9.530;2022-12-07T15:11:51;12.50;;;8.93;;
2259;SDS011;333;48.800;9.530;2022-12-07T15:14:19;11.00;;;9.03;;
2259;SDS011;333;48.800;9.530;2022-12-07T15:16:46;10.07;;;8.50;;
2259;SDS011;333;48.800;9.530;2022-12-07T15:19:14;10.70;;;9.57;;
2259;SDS011;333;48.800;9.530;2022-12-07T15:21:41;11.60;;;9.70;;
2259;SDS011;333;48.800;9.530;2022-12-07T15:24:09;11.90;;;9.63;;
2259;SDS011;333;48.800;9.530;2022-12-07T15:26:36;11.40;;;9.23;;
2259;SDS011;333;48.800;9.530;2022-12-07T15:29:05;11.17;;;8.37;;
2259;SDS011;333;48.800;9.530;2022-12-07T15:31:32;12.70;;;9.60;;
2259;SDS011;333;48.800;9.530;2022-12-07T15:34:00;13.67;;;10.17;;
2259;SDS011;333;48.800;9.530;2022-12-07T15:36:27;11.10;;;9.97;;
2259;SDS011;333;48.800;9.530;2022-12-07T15:38:55;12.47;;;9.70;;
2259;SDS011;333;48.800;9.530;2022-12-07T15:41:23;11.93;;;10.33;;
2259;SDS011;333;48.800;9.530;2022-12-07T15:43:50;11.43;;;10.23;;
2259;SDS011;333;48.800;9.530;2022-12-07T15:46:37;14.13;;;10.77;;
2259;SDS011;333;48.800;9.530;2022-12-07T15:49:06;12.63;;;10.03;;
2259;SDS011;333;48.800;9.530;2022-12-07T15:51:35;16.67;;;9.80;;
2259;SDS011;333;48.800;9.530;2022-12-07T15:54:02;12.43;;;10.43;;
2259;SDS011;333;48.800;9.530;2022-12-07T15:56:29;11.00;;;9.17;;
2259;SDS011;333;48.800;9.530;2022-12-07T15:58:56;10.37;;;8.57;;
2259;SDS011;333;48.800;9.530;2022-12-07T16:01:24;11.90;;;9.13;;